Greymouth, New Zealand
Current Conditions -  °F | °C
As of 7:00 PM on Saturday 29 Nov 2014 (Local Time) from NZCH Reporting Station
Clear Clear  
Wind Chill: 61°   Ceiling: Unl
Heat Index: 61°   Visibility: 6mi
Dew Point: 28°   Wind: 22mph
Humidity: 29%   Direction: 300°WNW
Pressure: 29.41"   Gusts: 39mph
Location:  42.46°S, 171.21°E
Report Text: NZCH 290700Z AUTO 30019G34KT 9999 NCD 16/M02 Q0996 NOSIG
Loading
Personal Weather Stations






























Interactive Weather Map New forecast layout! Learn more

10-Day Weather Forecast

Advertisements
Track Severe Weather on mobile